Kine — C6WT4 — position and weather

sailwx.info

Track history (hours):
 
Tides and Currents Weather Stations Pressure Air Temp Water Temp Dewpoint Dewpoint Depression Visibility Wind Speed Wind Dir Waves Ship Positions

Kine

Last reported at 2015-Jul-19 23:08 UTC. Time now 2015-Jul-31 23:30 UTC.
Position N 55°31' E 015°04'.
Warning: this ship's position is 12 days out of date.

Length 89 m; draft 5 m.

Type: Cargo ship. MMSI: 311117000.

Date/timePositionNaut miles runAvg speedWind from/ knotsBaromVisibWave heightAir tempDewpointWater temp
2015-Jul-19 23:08N 55°31' E 015°04'6 9.9
2015-Jul-19 22:33N 55°28' E 014°56'10 9.8
2015-Jul-19 21:31N 55°23' E 014°40'9 9.7
2015-Jul-19 20:33N 55°16' E 014°29'31 9.1
2015-Jul-19 17:11N 55°12' E 013°36'17 9.5
2015-Jul-19 15:24N 55°14' E 013°06'8 9.5
2015-Jul-19 14:33N 55°15' E 012°52'9 8.8
2015-Jul-19 13:33N 55°19' E 012°39'9 9.1
2015-Jul-19 12:33N 55°28' E 012°41'9 9.0
2015-Jul-19 11:33N 55°37' E 012°42'9 9.0
2015-Jul-19 10:33N 55°46' E 012°41'9 9.0
2015-Jul-19 09:33N 55°55' E 012°39'9 8.9
2015-Jul-19 08:33N 56°04' E 012°37'10 9.6
2015-Jul-19 07:33N 56°10' E 012°23'68 8.5
2015-Jul-18 23:33N 57°12' E 011°30'9 8.9
2015-Jul-18 22:33N 57°20' E 011°23'10 9.6
2015-Jul-18 21:33N 57°28' E 011°15'1010.0
2015-Jul-18 20:33N 57°36' E 011°02'10 9.5
2015-Jul-18 19:33N 57°43' E 010°50'140 8.7
2015-Jul-18 03:29N 58°04' E 006°30'8 8.1
2015-Jul-18 02:33N 58°09' E 006°18'9 9.5
2015-Jul-18 01:33N 58°15' E 006°05'10 9.7
2015-Jul-18 00:32N 58°22' E 005°52'8 8.5
2015-Jul-17 23:33N 58°28' E 005°41'18 8.8
2015-Jul-17 21:33N 58°44' E 005°27'9 9.3
2015-Jul-17 20:33N 58°53' E 005°31'9 9.0
2015-Jul-17 19:33N 59°02' E 005°34'9 8.9
2015-Jul-17 18:33N 59°00' E 005°51'10 9.7
2015-Jul-17 17:33N 58°54' E 006°05'0 0.1
2015-Jul-17 12:33N 58°53' E 006°05'9 8.9
2015-Jul-17 11:33N 58°58' E 005°50'3 2.7
2015-Jul-17 10:31N 58°57' E 005°45'0 0.0
2015-Jul-17 09:31N 58°57' E 005°45'0 0.0
2015-Jul-17 08:31N 58°57' E 005°45'0 0.0
2015-Jul-17 07:31N 58°57' E 005°45'0 0.0
2015-Jul-17 06:31N 58°57' E 005°45'0 0.0
2015-Jul-17 05:31N 58°57' E 005°45'0 0.0
2015-Jul-17 04:31N 58°57' E 005°45'0 0.0
2015-Jul-17 03:31N 58°57' E 005°45'0 0.0
2015-Jul-17 02:31N 58°57' E 005°45'0 0.0
2015-Jul-17 01:31N 58°57' E 005°45'0 0.0
2015-Jul-17 00:31N 58°57' E 005°45'0 0.0
2015-Jul-16 23:28N 58°57' E 005°45'0 0.0
2015-Jul-16 22:31N 58°57' E 005°45'0 0.0
2015-Jul-16 21:31N 58°57' E 005°45'0 0.0
2015-Jul-16 20:31N 58°57' E 005°45'0 0.0
2015-Jul-16 19:31N 58°57' E 005°45'0 0.0
2015-Jul-16 18:31N 58°57' E 005°45'0 0.0
2015-Jul-16 17:31N 58°57' E 005°45'0 0.0
2015-Jul-16 16:31N 58°57' E 005°45'0 0.0
2015-Jul-16 15:31N 58°57' E 005°45'0 0.0
2015-Jul-16 14:31N 58°57' E 005°45'0 0.0
2015-Jul-16 13:31N 58°57' E 005°45'0 0.0
2015-Jul-16 12:31N 58°57' E 005°45'0 0.0
2015-Jul-16 11:31N 58°57' E 005°45'0 0.0
2015-Jul-16 10:31N 58°57' E 005°45'0 0.0
2015-Jul-16 09:31N 58°57' E 005°45'0 0.0
2015-Jul-16 08:31N 58°57' E 005°45'0 0.0
2015-Jul-16 07:31N 58°57' E 005°45'0 0.0
2015-Jul-16 06:31N 58°57' E 005°45'0 0.0
2015-Jul-16 05:31N 58°57' E 005°45'0 0.0
2015-Jul-16 04:31N 58°57' E 005°45'0 0.0
2015-Jul-16 03:31N 58°57' E 005°45'0 0.0
2015-Jul-16 02:31N 58°57' E 005°45'0 0.0
2015-Jul-16 01:31N 58°57' E 005°45'0 0.0
2015-Jul-16 00:31N 58°57' E 005°45'0 0.0
2015-Jul-15 23:31N 58°57' E 005°45'0 0.0
2015-Jul-15 22:31N 58°57' E 005°45'0 0.0
2015-Jul-15 21:31N 58°57' E 005°45'0 0.0
2015-Jul-15 20:31N 58°57' E 005°45'0 0.0
2015-Jul-15 19:31N 58°57' E 005°45'0 0.2
2015-Jul-15 18:31N 58°57' E 005°45'0 0.0
2015-Jul-15 17:31N 58°57' E 005°45'0 0.0
2015-Jul-15 16:31N 58°57' E 005°45'0 0.0
2015-Jul-15 15:31N 58°57' E 005°45'0 0.0
2015-Jul-15 14:31N 58°57' E 005°45'0 0.0
2015-Jul-15 13:31N 58°57' E 005°45'0 0.0
2015-Jul-15 12:31N 58°57' E 005°45'0 0.0
2015-Jul-15 11:31N 58°57' E 005°45'0 0.0
2015-Jul-15 10:31N 58°57' E 005°45'0 0.0
2015-Jul-15 09:31N 58°57' E 005°45'0 0.0
2015-Jul-15 08:31N 58°57' E 005°45'0 0.1
2015-Jul-15 07:34N 58°57' E 005°45'6 5.5
2015-Jul-15 06:32N 58°51' E 005°45'0 0.0
2015-Jul-15 05:32N 58°51' E 005°45'0 0.0
2015-Jul-15 04:32N 58°51' E 005°45'0 0.0
2015-Jul-15 03:32N 58°51' E 005°45'0 0.0
2015-Jul-15 02:32N 58°51' E 005°45'0 0.0
2015-Jul-15 01:32N 58°51' E 005°45'0 0.0
2015-Jul-15 00:32N 58°51' E 005°45'0 0.0
2015-Jul-14 23:32N 58°51' E 005°45'0 0.0
2015-Jul-14 22:32N 58°51' E 005°45'0 0.0
2015-Jul-14 21:32N 58°51' E 005°45'0 0.0
2015-Jul-14 20:32N 58°51' E 005°45'0 0.0
2015-Jul-14 19:32N 58°51' E 005°45'0 0.0
2015-Jul-14 18:32N 58°51' E 005°45'0 0.0
2015-Jul-14 17:32N 58°51' E 005°45'0 0.0
2015-Jul-14 16:32N 58°51' E 005°45'0 0.0
2015-Jul-14 15:32N 58°51' E 005°45'0 0.0
2015-Jul-14 14:26N 58°51' E 005°45'0 0.0
2015-Jul-14 13:32N 58°51' E 005°45'0 0.0
2015-Jul-14 12:32N 58°51' E 005°45'0 0.0
2015-Jul-14 11:32N 58°51' E 005°45'0 0.0
2015-Jul-14 10:32N 58°51' E 005°45'0 0.0
2015-Jul-14 09:32N 58°51' E 005°45'0 0.0
2015-Jul-14 08:32N 58°51' E 005°45'0 0.0
2015-Jul-14 07:32N 58°51' E 005°45'3 3.3
2015-Jul-14 06:33N 58°54' E 005°46'7 7.3
2015-Jul-14 05:33N 59°01' E 005°40'6 5.9
2015-Jul-14 04:33N 58°57' E 005°33'9 9.0
2015-Jul-14 03:33N 58°48' E 005°28'22 7.4
2015-Jul-14 00:33N 58°27' E 005°44'8 8.1
2015-Jul-13 23:33N 58°22' E 005°56'85 6.5
2015-Jul-13 10:32N 58°12' E 008°36'72 9.0
2015-Jul-13 02:31N 58°57' E 010°25'9 9.0
2015-Jul-13 01:33N 59°02' E 010°38'7 6.7
2015-Jul-13 00:33N 59°09' E 010°42'9 8.9
2015-Jul-12 23:33N 59°17' E 010°36'9 8.7
2015-Jul-12 22:33N 59°26' E 010°33'6 5.7
2015-Jul-12 21:33N 59°30' E 010°41'1 1.4
2015-Jul-12 20:33N 59°28' E 010°41'0 0.0
2015-Jul-12 19:33N 59°28' E 010°41'0 0.0
2015-Jul-12 18:33N 59°28' E 010°41'0 0.0
2015-Jul-12 17:33N 59°28' E 010°41'0 0.0
2015-Jul-12 16:33N 59°28' E 010°41'0 0.0
2015-Jul-12 15:33N 59°28' E 010°41'0 0.0
2015-Jul-12 14:33N 59°28' E 010°41'0 0.0
2015-Jul-12 13:33N 59°28' E 010°41'0 0.0
2015-Jul-12 12:33N 59°28' E 010°41'0 0.0
2015-Jul-12 11:33N 59°28' E 010°41'0 0.0
2015-Jul-12 10:33N 59°28' E 010°41'0 0.0
2015-Jul-12 09:24N 59°28' E 010°41'0 0.0
2015-Jul-12 08:33N 59°28' E 010°41'0 0.0
2015-Jul-12 07:33N 59°28' E 010°41'0 0.0
2015-Jul-12 06:33N 59°28' E 010°41'0 0.0
2015-Jul-12 05:33N 59°28' E 010°41'0 0.0
2015-Jul-12 04:33N 59°28' E 010°41'0 0.0
2015-Jul-12 03:33N 59°28' E 010°41'0 0.0
2015-Jul-12 02:33N 59°28' E 010°41'0 0.0
2015-Jul-12 01:33N 59°28' E 010°41'0 0.0
2015-Jul-12 00:33N 59°28' E 010°41'0 0.0
2015-Jul-11 23:33N 59°28' E 010°41'0 0.0
2015-Jul-11 22:33N 59°28' E 010°41'0 0.0
2015-Jul-11 21:33N 59°28' E 010°41'0 0.0
2015-Jul-11 20:33N 59°28' E 010°41'0 0.0
2015-Jul-11 19:33N 59°28' E 010°41'0 0.0
2015-Jul-11 18:33N 59°28' E 010°41'0 0.0
2015-Jul-11 17:33N 59°28' E 010°41'0 0.0
2015-Jul-11 16:33N 59°28' E 010°41'0 0.0
2015-Jul-11 15:33N 59°28' E 010°41'0 0.0
2015-Jul-11 14:33N 59°28' E 010°41'0 0.0
2015-Jul-11 13:33N 59°28' E 010°41'0 0.0
2015-Jul-11 12:33N 59°28' E 010°41'0 0.0
2015-Jul-11 11:33N 59°28' E 010°41'0 0.0
2015-Jul-11 10:33N 59°28' E 010°41'0 0.0
2015-Jul-11 09:33N 59°28' E 010°41'0 0.0
2015-Jul-11 08:33N 59°28' E 010°41'0 0.0
2015-Jul-11 07:27N 59°28' E 010°41'0 0.0
2015-Jul-11 06:33N 59°28' E 010°41'0 0.0
2015-Jul-11 05:33N 59°28' E 010°41'0 0.0
2015-Jul-11 04:33N 59°28' E 010°41'0 0.0
2015-Jul-11 03:33N 59°28' E 010°41'0 0.0
2015-Jul-11 02:33N 59°28' E 010°41'0 0.0
2015-Jul-11 01:33N 59°28' E 010°41'0 0.0
2015-Jul-11 00:33N 59°28' E 010°41'0 0.0
2015-Jul-10 23:33N 59°28' E 010°41'0 0.0
2015-Jul-10 22:30N 59°28' E 010°41'0 0.0
2015-Jul-10 21:33N 59°28' E 010°41'0 0.0
2015-Jul-10 20:33N 59°28' E 010°41'0 0.0
2015-Jul-10 19:33N 59°28' E 010°41'0 0.0
2015-Jul-10 18:33N 59°28' E 010°41'0 0.0
2015-Jul-10 17:33N 59°28' E 010°41'0 0.0
2015-Jul-10 16:33N 59°28' E 010°41'0 0.0
2015-Jul-10 15:33N 59°28' E 010°41'3 2.7
2015-Jul-10 14:33N 59°31' E 010°39'8 8.0
2015-Jul-10 13:33N 59°23' E 010°36'9 9.4
2015-Jul-10 12:33N 59°14' E 010°43'8 8.1
2015-Jul-10 11:34N 59°08' E 010°53'4 3.5
2015-Jul-10 10:31N 59°11' E 010°57'0 0.0
2015-Jul-10 09:31N 59°11' E 010°57'0 0.0
2015-Jul-10 08:31N 59°11' E 010°57'0 0.0
2015-Jul-10 07:31N 59°11' E 010°57'0 0.0
2015-Jul-10 06:31N 59°11' E 010°57'0 0.0
2015-Jul-10 05:31N 59°11' E 010°57'0 0.0
2015-Jul-10 04:31N 59°11' E 010°57'0 0.0
2015-Jul-10 03:31N 59°11' E 010°57'0 0.0
2015-Jul-10 02:28N 59°11' E 010°57'0 0.0
2015-Jul-10 01:31N 59°11' E 010°57'0 0.0
2015-Jul-10 00:31N 59°11' E 010°57'0 0.0
2015-Jul-09 23:31N 59°11' E 010°57'  
Track history (hours):
 
Tides and Currents Weather Stations Pressure Air Temp Water Temp Dewpoint Dewpoint Depression Visibility Wind Speed Wind Dir Waves Ship Positions

Kine

Last reported at 2015-Jul-19 23:08 UTC. Time now 2015-Jul-31 23:30 UTC.
Position N 55°31' E 015°04'.
Warning: this ship's position is 12 days out of date.

Length 89 m; draft 5 m.

Type: Cargo ship. MMSI: 311117000.

Date/timePositionNaut miles runAvg speedWind from/ knotsBaromVisibWave heightAir tempDewpointWater temp
2015-Jul-19 23:08N 55°31' E 015°04'6 9.9
2015-Jul-19 22:33N 55°28' E 014°56'10 9.8
2015-Jul-19 21:31N 55°23' E 014°40'9 9.7
2015-Jul-19 20:33N 55°16' E 014°29'31 9.1
2015-Jul-19 17:11N 55°12' E 013°36'17 9.5
2015-Jul-19 15:24N 55°14' E 013°06'8 9.5
2015-Jul-19 14:33N 55°15' E 012°52'9 8.8
2015-Jul-19 13:33N 55°19' E 012°39'9 9.1
2015-Jul-19 12:33N 55°28' E 012°41'9 9.0
2015-Jul-19 11:33N 55°37' E 012°42'9 9.0
2015-Jul-19 10:33N 55°46' E 012°41'9 9.0
2015-Jul-19 09:33N 55°55' E 012°39'9 8.9
2015-Jul-19 08:33N 56°04' E 012°37'10 9.6
2015-Jul-19 07:33N 56°10' E 012°23'68 8.5
2015-Jul-18 23:33N 57°12' E 011°30'9 8.9
2015-Jul-18 22:33N 57°20' E 011°23'10 9.6
2015-Jul-18 21:33N 57°28' E 011°15'1010.0
2015-Jul-18 20:33N 57°36' E 011°02'10 9.5
2015-Jul-18 19:33N 57°43' E 010°50'140 8.7
2015-Jul-18 03:29N 58°04' E 006°30'8 8.1
2015-Jul-18 02:33N 58°09' E 006°18'9 9.5
2015-Jul-18 01:33N 58°15' E 006°05'10 9.7
2015-Jul-18 00:32N 58°22' E 005°52'8 8.5
2015-Jul-17 23:33N 58°28' E 005°41'18 8.8
2015-Jul-17 21:33N 58°44' E 005°27'9 9.3
2015-Jul-17 20:33N 58°53' E 005°31'9 9.0
2015-Jul-17 19:33N 59°02' E 005°34'9 8.9
2015-Jul-17 18:33N 59°00' E 005°51'10 9.7
2015-Jul-17 17:33N 58°54' E 006°05'0 0.1
2015-Jul-17 12:33N 58°53' E 006°05'9 8.9
2015-Jul-17 11:33N 58°58' E 005°50'3 2.7
2015-Jul-17 10:31N 58°57' E 005°45'0 0.0
2015-Jul-17 09:31N 58°57' E 005°45'0 0.0
2015-Jul-17 08:31N 58°57' E 005°45'0 0.0
2015-Jul-17 07:31N 58°57' E 005°45'0 0.0
2015-Jul-17 06:31N 58°57' E 005°45'0 0.0
2015-Jul-17 05:31N 58°57' E 005°45'0 0.0
2015-Jul-17 04:31N 58°57' E 005°45'0 0.0
2015-Jul-17 03:31N 58°57' E 005°45'0 0.0
2015-Jul-17 02:31N 58°57' E 005°45'0 0.0
2015-Jul-17 01:31N 58°57' E 005°45'0 0.0
2015-Jul-17 00:31N 58°57' E 005°45'0 0.0
2015-Jul-16 23:28N 58°57' E 005°45'0 0.0
2015-Jul-16 22:31N 58°57' E 005°45'0 0.0
2015-Jul-16 21:31N 58°57' E 005°45'0 0.0
2015-Jul-16 20:31N 58°57' E 005°45'0 0.0
2015-Jul-16 19:31N 58°57' E 005°45'0 0.0
2015-Jul-16 18:31N 58°57' E 005°45'0 0.0
2015-Jul-16 17:31N 58°57' E 005°45'0 0.0
2015-Jul-16 16:31N 58°57' E 005°45'0 0.0
2015-Jul-16 15:31N 58°57' E 005°45'0 0.0
2015-Jul-16 14:31N 58°57' E 005°45'0 0.0
2015-Jul-16 13:31N 58°57' E 005°45'0 0.0
2015-Jul-16 12:31N 58°57' E 005°45'0 0.0
2015-Jul-16 11:31N 58°57' E 005°45'0 0.0
2015-Jul-16 10:31N 58°57' E 005°45'0 0.0
2015-Jul-16 09:31N 58°57' E 005°45'0 0.0
2015-Jul-16 08:31N 58°57' E 005°45'0 0.0
2015-Jul-16 07:31N 58°57' E 005°45'0 0.0
2015-Jul-16 06:31N 58°57' E 005°45'0 0.0
2015-Jul-16 05:31N 58°57' E 005°45'0 0.0
2015-Jul-16 04:31N 58°57' E 005°45'0 0.0
2015-Jul-16 03:31N 58°57' E 005°45'0 0.0
2015-Jul-16 02:31N 58°57' E 005°45'0 0.0
2015-Jul-16 01:31N 58°57' E 005°45'0 0.0
2015-Jul-16 00:31N 58°57' E 005°45'0 0.0
2015-Jul-15 23:31N 58°57' E 005°45'0 0.0
2015-Jul-15 22:31N 58°57' E 005°45'0 0.0
2015-Jul-15 21:31N 58°57' E 005°45'0 0.0
2015-Jul-15 20:31N 58°57' E 005°45'0 0.0
2015-Jul-15 19:31N 58°57' E 005°45'0 0.2
2015-Jul-15 18:31N 58°57' E 005°45'0 0.0
2015-Jul-15 17:31N 58°57' E 005°45'0 0.0
2015-Jul-15 16:31N 58°57' E 005°45'0 0.0
2015-Jul-15 15:31N 58°57' E 005°45'0 0.0
2015-Jul-15 14:31N 58°57' E 005°45'0 0.0
2015-Jul-15 13:31N 58°57' E 005°45'0 0.0
2015-Jul-15 12:31N 58°57' E 005°45'0 0.0
2015-Jul-15 11:31N 58°57' E 005°45'0 0.0
2015-Jul-15 10:31N 58°57' E 005°45'0 0.0
2015-Jul-15 09:31N 58°57' E 005°45'0 0.0
2015-Jul-15 08:31N 58°57' E 005°45'0 0.1
2015-Jul-15 07:34N 58°57' E 005°45'6 5.5
2015-Jul-15 06:32N 58°51' E 005°45'0 0.0
2015-Jul-15 05:32N 58°51' E 005°45'0 0.0
2015-Jul-15 04:32N 58°51' E 005°45'0 0.0
2015-Jul-15 03:32N 58°51' E 005°45'0 0.0
2015-Jul-15 02:32N 58°51' E 005°45'0 0.0
2015-Jul-15 01:32N 58°51' E 005°45'0 0.0
2015-Jul-15 00:32N 58°51' E 005°45'0 0.0
2015-Jul-14 23:32N 58°51' E 005°45'0 0.0
2015-Jul-14 22:32N 58°51' E 005°45'0 0.0
2015-Jul-14 21:32N 58°51' E 005°45'0 0.0
2015-Jul-14 20:32N 58°51' E 005°45'0 0.0
2015-Jul-14 19:32N 58°51' E 005°45'0 0.0
2015-Jul-14 18:32N 58°51' E 005°45'0 0.0
2015-Jul-14 17:32N 58°51' E 005°45'0 0.0
2015-Jul-14 16:32N 58°51' E 005°45'0 0.0
2015-Jul-14 15:32N 58°51' E 005°45'0 0.0
2015-Jul-14 14:26N 58°51' E 005°45'0 0.0
2015-Jul-14 13:32N 58°51' E 005°45'0 0.0
2015-Jul-14 12:32N 58°51' E 005°45'0 0.0
2015-Jul-14 11:32N 58°51' E 005°45'0 0.0
2015-Jul-14 10:32N 58°51' E 005°45'0 0.0
2015-Jul-14 09:32N 58°51' E 005°45'0 0.0
2015-Jul-14 08:32N 58°51' E 005°45'0 0.0
2015-Jul-14 07:32N 58°51' E 005°45'3 3.3
2015-Jul-14 06:33N 58°54' E 005°46'7 7.3
2015-Jul-14 05:33N 59°01' E 005°40'6 5.9
2015-Jul-14 04:33N 58°57' E 005°33'9 9.0
2015-Jul-14 03:33N 58°48' E 005°28'22 7.4
2015-Jul-14 00:33N 58°27' E 005°44'8 8.1
2015-Jul-13 23:33N 58°22' E 005°56'85 6.5
2015-Jul-13 10:32N 58°12' E 008°36'72 9.0
2015-Jul-13 02:31N 58°57' E 010°25'9 9.0
2015-Jul-13 01:33N 59°02' E 010°38'7 6.7
2015-Jul-13 00:33N 59°09' E 010°42'9 8.9
2015-Jul-12 23:33N 59°17' E 010°36'9 8.7
2015-Jul-12 22:33N 59°26' E 010°33'6 5.7
2015-Jul-12 21:33N 59°30' E 010°41'1 1.4
2015-Jul-12 20:33N 59°28' E 010°41'0 0.0
2015-Jul-12 19:33N 59°28' E 010°41'0 0.0
2015-Jul-12 18:33N 59°28' E 010°41'0 0.0
2015-Jul-12 17:33N 59°28' E 010°41'0 0.0
2015-Jul-12 16:33N 59°28' E 010°41'0 0.0
2015-Jul-12 15:33N 59°28' E 010°41'0 0.0
2015-Jul-12 14:33N 59°28' E 010°41'0 0.0
2015-Jul-12 13:33N 59°28' E 010°41'0 0.0
2015-Jul-12 12:33N 59°28' E 010°41'0 0.0
2015-Jul-12 11:33N 59°28' E 010°41'0 0.0
2015-Jul-12 10:33N 59°28' E 010°41'0 0.0
2015-Jul-12 09:24N 59°28' E 010°41'0 0.0
2015-Jul-12 08:33N 59°28' E 010°41'0 0.0
2015-Jul-12 07:33N 59°28' E 010°41'0 0.0
2015-Jul-12 06:33N 59°28' E 010°41'0 0.0
2015-Jul-12 05:33N 59°28' E 010°41'0 0.0
2015-Jul-12 04:33N 59°28' E 010°41'0 0.0
2015-Jul-12 03:33N 59°28' E 010°41'0 0.0
2015-Jul-12 02:33N 59°28' E 010°41'0 0.0
2015-Jul-12 01:33N 59°28' E 010°41'0 0.0
2015-Jul-12 00:33N 59°28' E 010°41'0 0.0
2015-Jul-11 23:33N 59°28' E 010°41'0 0.0
2015-Jul-11 22:33N 59°28' E 010°41'0 0.0
2015-Jul-11 21:33N 59°28' E 010°41'0 0.0
2015-Jul-11 20:33N 59°28' E 010°41'0 0.0
2015-Jul-11 19:33N 59°28' E 010°41'0 0.0
2015-Jul-11 18:33N 59°28' E 010°41'0 0.0
2015-Jul-11 17:33N 59°28' E 010°41'0 0.0
2015-Jul-11 16:33N 59°28' E 010°41'0 0.0
2015-Jul-11 15:33N 59°28' E 010°41'0 0.0
2015-Jul-11 14:33N 59°28' E 010°41'0 0.0
2015-Jul-11 13:33N 59°28' E 010°41'0 0.0
2015-Jul-11 12:33N 59°28' E 010°41'0 0.0
2015-Jul-11 11:33N 59°28' E 010°41'0 0.0
2015-Jul-11 10:33N 59°28' E 010°41'0 0.0
2015-Jul-11 09:33N 59°28' E 010°41'0 0.0
2015-Jul-11 08:33N 59°28' E 010°41'0 0.0
2015-Jul-11 07:27N 59°28' E 010°41'0 0.0
2015-Jul-11 06:33N 59°28' E 010°41'0 0.0
2015-Jul-11 05:33N 59°28' E 010°41'0 0.0
2015-Jul-11 04:33N 59°28' E 010°41'0 0.0
2015-Jul-11 03:33N 59°28' E 010°41'0 0.0
2015-Jul-11 02:33N 59°28' E 010°41'0 0.0
2015-Jul-11 01:33N 59°28' E 010°41'0 0.0
2015-Jul-11 00:33N 59°28' E 010°41'0 0.0
2015-Jul-10 23:33N 59°28' E 010°41'0 0.0
2015-Jul-10 22:30N 59°28' E 010°41'0 0.0
2015-Jul-10 21:33N 59°28' E 010°41'0 0.0
2015-Jul-10 20:33N 59°28' E 010°41'0 0.0
2015-Jul-10 19:33N 59°28' E 010°41'0 0.0
2015-Jul-10 18:33N 59°28' E 010°41'0 0.0
2015-Jul-10 17:33N 59°28' E 010°41'0 0.0
2015-Jul-10 16:33N 59°28' E 010°41'0 0.0
2015-Jul-10 15:33N 59°28' E 010°41'3 2.7
2015-Jul-10 14:33N 59°31' E 010°39'8 8.0
2015-Jul-10 13:33N 59°23' E 010°36'9 9.4
2015-Jul-10 12:33N 59°14' E 010°43'8 8.1
2015-Jul-10 11:34N 59°08' E 010°53'4 3.5
2015-Jul-10 10:31N 59°11' E 010°57'0 0.0
2015-Jul-10 09:31N 59°11' E 010°57'0 0.0
2015-Jul-10 08:31N 59°11' E 010°57'0 0.0
2015-Jul-10 07:31N 59°11' E 010°57'0 0.0
2015-Jul-10 06:31N 59°11' E 010°57'0 0.0
2015-Jul-10 05:31N 59°11' E 010°57'0 0.0
2015-Jul-10 04:31N 59°11' E 010°57'0 0.0
2015-Jul-10 03:31N 59°11' E 010°57'0 0.0
2015-Jul-10 02:28N 59°11' E 010°57'0 0.0
2015-Jul-10 01:31N 59°11' E 010°57'0 0.0
2015-Jul-10 00:31N 59°11' E 010°57'0 0.0
2015-Jul-09 23:31N 59°11' E 010°57'  

Dump ship's entire track history